sensor_id;sensor_type;location;lat;lon;timestamp;pressure;altitude;pressure_sealevel;temperature
74449;BMP280;62878;51.026;4.472;2022-08-25T00:02:05;-6116.94;;;25.00
74449;BMP280;62878;51.026;4.472;2022-08-25T00:04:31;-6117.94;;;25.06
74449;BMP280;62878;51.026;4.472;2022-08-25T00:06:56;-6116.94;;;25.00
74449;BMP280;62878;51.026;4.472;2022-08-25T00:09:25;-6117.88;;;25.06
74449;BMP280;62878;51.026;4.472;2022-08-25T00:11:53;-6117.63;;;25.04
74449;BMP280;62878;51.026;4.472;2022-08-25T00:14:22;-6113.75;;;24.81
74449;BMP280;62878;51.026;4.472;2022-08-25T00:16:47;-6116.84;;;25.00
74449;BMP280;62878;51.026;4.472;2022-08-25T00:19:20;-6117.28;;;25.02
74449;BMP280;62878;51.026;4.472;2022-08-25T00:21:46;-6115.09;;;24.89
74449;BMP280;62878;51.026;4.472;2022-08-25T00:24:13;-6114.44;;;24.85
74449;BMP280;62878;51.026;4.472;2022-08-25T00:26:41;-6115.09;;;24.89
74449;BMP280;62878;51.026;4.472;2022-08-25T00:29:07;-6116.44;;;24.97
74449;BMP280;62878;51.026;4.472;2022-08-25T00:31:33;-6115.25;;;24.90
74449;BMP280;62878;51.026;4.472;2022-08-25T00:33:59;-6115.94;;;24.94
74449;BMP280;62878;51.026;4.472;2022-08-25T00:36:26;-6114.59;;;24.86
74449;BMP280;62878;51.026;4.472;2022-08-25T00:38:53;-6115.25;;;24.90
74449;BMP280;62878;51.026;4.472;2022-08-25T00:41:21;-6113.69;;;24.80
74449;BMP280;62878;51.026;4.472;2022-08-25T00:46:23;-6073.16;;;22.37
74449;BMP280;62878;51.026;4.472;2022-08-25T00:48:55;-6071.31;;;22.26
74449;BMP280;62878;51.026;4.472;2022-08-25T00:51:46;-6084.75;;;23.07
74449;BMP280;62878;51.026;4.472;2022-08-25T00:54:28;-6092.81;;;23.55
74449;BMP280;62878;51.026;4.472;2022-08-25T00:56:55;-6098.75;;;23.91
74449;BMP280;62878;51.026;4.472;2022-08-25T00:59:23;-6100.50;;;24.01
74449;BMP280;62878;51.026;4.472;2022-08-25T01:01:51;-6104.38;;;24.25
74449;BMP280;62878;51.026;4.472;2022-08-25T01:04:18;-6102.28;;;24.12
74449;BMP280;62878;51.026;4.472;2022-08-25T01:06:44;-6100.09;;;23.99
74449;BMP280;62878;51.026;4.472;2022-08-25T01:09:11;-6106.03;;;24.35
74449;BMP280;62878;51.026;4.472;2022-08-25T01:11:38;-6106.72;;;24.39
74449;BMP280;62878;51.026;4.472;2022-08-25T01:14:04;-6107.06;;;24.41
74449;BMP280;62878;51.026;4.472;2022-08-25T01:16:38;-6107.13;;;24.41
74449;BMP280;62878;51.026;4.472;2022-08-25T01:19:05;-6105.88;;;24.34
74449;BMP280;62878;51.026;4.472;2022-08-25T01:21:38;-6106.03;;;24.35
74449;BMP280;62878;51.026;4.472;2022-08-25T01:24:04;-6098.00;;;23.86
74449;BMP280;62878;51.026;4.472;2022-08-25T01:26:32;-6106.47;;;24.37
74449;BMP280;62878;51.026;4.472;2022-08-25T01:29:00;-6107.56;;;24.44
74449;BMP280;62878;51.026;4.472;2022-08-25T01:31:45;-6106.78;;;24.39
74449;BMP280;62878;51.026;4.472;2022-08-25T01:34:11;-6108.16;;;24.47
74449;BMP280;62878;51.026;4.472;2022-08-25T01:36:37;-6106.03;;;24.35
74449;BMP280;62878;51.026;4.472;2022-08-25T01:39:03;-6108.72;;;24.51
74449;BMP280;62878;51.026;4.472;2022-08-25T01:41:33;-6108.72;;;24.51
74449;BMP280;62878;51.026;4.472;2022-08-25T01:44:02;-6109.41;;;24.55
74449;BMP280;62878;51.026;4.472;2022-08-25T01:46:31;-6109.72;;;24.57
74449;BMP280;62878;51.026;4.472;2022-08-25T01:48:56;-6107.97;;;24.46
74449;BMP280;62878;51.026;4.472;2022-08-25T01:51:23;-6110.00;;;24.58
74449;BMP280;62878;51.026;4.472;2022-08-25T01:53:49;-6110.06;;;24.59
74449;BMP280;62878;51.026;4.472;2022-08-25T01:56:16;-6109.81;;;24.57
74449;BMP280;62878;51.026;4.472;2022-08-25T01:58:45;-6110.16;;;24.59
74449;BMP280;62878;51.026;4.472;2022-08-25T02:01:21;-6110.25;;;24.60
74449;BMP280;62878;51.026;4.472;2022-08-25T02:03:50;-6110.50;;;24.61
74449;BMP280;62878;51.026;4.472;2022-08-25T02:06:21;-6110.75;;;24.63
74449;BMP280;62878;51.026;4.472;2022-08-25T02:08:52;-6110.75;;;24.63
74449;BMP280;62878;51.026;4.472;2022-08-25T02:11:19;-6109.91;;;24.58
74449;BMP280;62878;51.026;4.472;2022-08-25T02:13:45;-6110.75;;;24.63
74449;BMP280;62878;51.026;4.472;2022-08-25T02:16:16;-6108.22;;;24.48
74449;BMP280;62878;51.026;4.472;2022-08-25T02:18:42;-6110.66;;;24.62
74449;BMP280;62878;51.026;4.472;2022-08-25T02:21:08;-6110.81;;;24.63
74449;BMP280;62878;51.026;4.472;2022-08-25T02:23:35;-6105.03;;;24.29
74449;BMP280;62878;51.026;4.472;2022-08-25T02:26:00;-6110.81;;;24.63
74449;BMP280;62878;51.026;4.472;2022-08-25T02:28:26;-6110.75;;;24.63
74449;BMP280;62878;51.026;4.472;2022-08-25T02:30:51;-6109.16;;;24.53
74449;BMP280;62878;51.026;4.472;2022-08-25T02:33:17;-6110.56;;;24.62
74449;BMP280;62878;51.026;4.472;2022-08-25T02:35:43;-6103.53;;;24.19
74449;BMP280;62878;51.026;4.472;2022-08-25T02:38:09;-6110.66;;;24.62
74449;BMP280;62878;51.026;4.472;2022-08-25T02:40:34;-6110.31;;;24.60
74449;BMP280;62878;51.026;4.472;2022-08-25T02:43:00;-6109.16;;;24.53
74449;BMP280;62878;51.026;4.472;2022-08-25T02:45:25;-6110.56;;;24.62
74449;BMP280;62878;51.026;4.472;2022-08-25T02:47:50;-6107.47;;;24.43
74449;BMP280;62878;51.026;4.472;2022-08-25T02:50:16;-6105.97;;;24.34
74449;BMP280;62878;51.026;4.472;2022-08-25T02:52:42;-6107.56;;;24.44
74449;BMP280;62878;51.026;4.472;2022-08-25T02:55:09;-6109.91;;;24.58
74449;BMP280;62878;51.026;4.472;2022-08-25T02:57:38;-6106.22;;;24.36
74449;BMP280;62878;51.026;4.472;2022-08-25T03:00:04;-6107.91;;;24.46
74449;BMP280;62878;51.026;4.472;2022-08-25T03:02:30;-6109.72;;;24.57
74449;BMP280;62878;51.026;4.472;2022-08-25T03:04:56;-6109.72;;;24.57
74449;BMP280;62878;51.026;4.472;2022-08-25T03:07:21;-6109.56;;;24.56
74449;BMP280;62878;51.026;4.472;2022-08-25T03:09:47;-6106.72;;;24.39
74449;BMP280;62878;51.026;4.472;2022-08-25T03:12:12;-6108.97;;;24.52
74449;BMP280;62878;51.026;4.472;2022-08-25T03:14:39;-6109.47;;;24.55
74449;BMP280;62878;51.026;4.472;2022-08-25T03:17:06;-6109.31;;;24.54
74449;BMP280;62878;51.026;4.472;2022-08-25T03:19:31;-6109.16;;;24.53
74449;BMP280;62878;51.026;4.472;2022-08-25T03:21:57;-6106.38;;;24.37
74449;BMP280;62878;51.026;4.472;2022-08-25T03:24:23;-6108.91;;;24.52
74449;BMP280;62878;51.026;4.472;2022-08-25T03:26:49;-6108.06;;;24.47
74449;BMP280;62878;51.026;4.472;2022-08-25T03:29:30;-6108.66;;;24.50
74449;BMP280;62878;51.026;4.472;2022-08-25T03:31:56;-6108.72;;;24.51
74449;BMP280;62878;51.026;4.472;2022-08-25T03:34:26;-6108.56;;;24.50
74449;BMP280;62878;51.026;4.472;2022-08-25T03:36:54;-6108.56;;;24.50
74449;BMP280;62878;51.026;4.472;2022-08-25T03:39:21;-6108.41;;;24.49
74449;BMP280;62878;51.026;4.472;2022-08-25T03:41:47;-6104.97;;;24.28
74449;BMP280;62878;51.026;4.472;2022-08-25T03:44:16;-6106.72;;;24.39
74449;BMP280;62878;51.026;4.472;2022-08-25T03:46:44;-6107.06;;;24.41
74449;BMP280;62878;51.026;4.472;2022-08-25T03:49:12;-6108.16;;;24.47
74449;BMP280;62878;51.026;4.472;2022-08-25T03:51:49;-6108.06;;;24.47
74449;BMP280;62878;51.026;4.472;2022-08-25T03:54:17;-6105.03;;;24.29
74449;BMP280;62878;51.026;4.472;2022-08-25T03:56:43;-6106.97;;;24.40
74449;BMP280;62878;51.026;4.472;2022-08-25T03:59:08;-6106.56;;;24.38
74449;BMP280;62878;51.026;4.472;2022-08-25T04:01:38;-6107.47;;;24.43
74449;BMP280;62878;51.026;4.472;2022-08-25T04:04:06;-6107.56;;;24.44
74449;BMP280;62878;51.026;4.472;2022-08-25T04:06:32;-6108.06;;;24.47
74449;BMP280;62878;51.026;4.472;2022-08-25T04:08:57;-6108.47;;;24.49
74449;BMP280;62878;51.026;4.472;2022-08-25T04:11:24;-6109.66;;;24.56
74449;BMP280;62878;51.026;4.472;2022-08-25T04:13:55;-6109.16;;;24.53
74449;BMP280;62878;51.026;4.472;2022-08-25T04:16:26;-6111.91;;;24.70
74449;BMP280;62878;51.026;4.472;2022-08-25T04:18:54;-6111.16;;;24.65
74449;BMP280;62878;51.026;4.472;2022-08-25T04:21:21;-6114.75;;;24.87
74449;BMP280;62878;51.026;4.472;2022-08-25T04:23:48;-6113.25;;;24.78
74449;BMP280;62878;51.026;4.472;2022-08-25T04:28:47;-6115.44;;;24.91
74449;BMP280;62878;51.026;4.472;2022-08-25T04:31:14;-6114.44;;;24.85
74449;BMP280;62878;51.026;4.472;2022-08-25T04:33:40;-6115.78;;;24.93
74449;BMP280;62878;51.026;4.472;2022-08-25T04:36:07;-6116.44;;;24.97
74449;BMP280;62878;51.026;4.472;2022-08-25T04:38:33;-6116.28;;;24.96
74449;BMP280;62878;51.026;4.472;2022-08-25T04:41:01;-6116.34;;;24.97
74449;BMP280;62878;51.026;4.472;2022-08-25T04:43:27;-6114.44;;;24.85
74449;BMP280;62878;51.026;4.472;2022-08-25T04:45:53;-6116.03;;;24.95
74449;BMP280;62878;51.026;4.472;2022-08-25T04:48:20;-6115.78;;;24.93
74449;BMP280;62878;51.026;4.472;2022-08-25T04:50:45;-6111.25;;;24.66
74449;BMP280;62878;51.026;4.472;2022-08-25T04:53:11;-6112.75;;;24.75
74449;BMP280;62878;51.026;4.472;2022-08-25T04:55:41;-6114.44;;;24.85
74449;BMP280;62878;51.026;4.472;2022-08-25T04:58:07;-6114.75;;;24.87
74449;BMP280;62878;51.026;4.472;2022-08-25T05:00:34;-6116.28;;;24.96
74449;BMP280;62878;51.026;4.472;2022-08-25T05:03:00;-6116.44;;;24.97
74449;BMP280;62878;51.026;4.472;2022-08-25T05:05:26;-6110.06;;;24.59
74449;BMP280;62878;51.026;4.472;2022-08-25T05:07:51;-6112.41;;;24.73
74449;BMP280;62878;51.026;4.472;2022-08-25T05:10:17;-6116.19;;;24.96
74449;BMP280;62878;51.026;4.472;2022-08-25T05:12:44;-6116.59;;;24.98
74449;BMP280;62878;51.026;4.472;2022-08-25T05:15:10;-6112.84;;;24.75
74449;BMP280;62878;51.026;4.472;2022-08-25T05:17:54;-6115.78;;;24.93
74449;BMP280;62878;51.026;4.472;2022-08-25T05:20:19;-6109.41;;;24.55
74449;BMP280;62878;51.026;4.472;2022-08-25T05:22:44;-6114.09;;;24.83
74449;BMP280;62878;51.026;4.472;2022-08-25T05:25:11;-6112.50;;;24.73
74449;BMP280;62878;51.026;4.472;2022-08-25T05:27:36;-6115.50;;;24.92
74449;BMP280;62878;51.026;4.472;2022-08-25T05:30:02;-6113.84;;;24.81
74449;BMP280;62878;51.026;4.472;2022-08-25T05:32:28;-6109.56;;;24.56
74449;BMP280;62878;51.026;4.472;2022-08-25T05:34:53;-6108.31;;;24.48
74449;BMP280;62878;51.026;4.472;2022-08-25T05:37:18;-6113.94;;;24.82
74449;BMP280;62878;51.026;4.472;2022-08-25T05:39:44;-6113.59;;;24.80
74449;BMP280;62878;51.026;4.472;2022-08-25T05:42:09;-6083.00;;;22.96
74449;BMP280;62878;51.026;4.472;2022-08-25T05:44:34;-6063.75;;;21.80
74449;BMP280;62878;51.026;4.472;2022-08-25T05:47:00;-6056.22;;;21.35
74449;BMP280;62878;51.026;4.472;2022-08-25T05:49:25;-6049.00;;;20.92
74449;BMP280;62878;51.026;4.472;2022-08-25T05:51:51;-6046.91;;;20.79
74449;BMP280;62878;51.026;4.472;2022-08-25T05:54:16;-6043.94;;;20.61
74449;BMP280;62878;51.026;4.472;2022-08-25T05:56:42;-6038.16;;;20.27
74449;BMP280;62878;51.026;4.472;2022-08-25T05:59:09;-6035.47;;;20.11
74449;BMP280;62878;51.026;4.472;2022-08-25T06:01:34;-6039.84;;;20.37
74449;BMP280;62878;51.026;4.472;2022-08-25T06:04:19;-6039.75;;;20.36
74449;BMP280;62878;51.026;4.472;2022-08-25T06:06:46;-6037.75;;;20.24
74449;BMP280;62878;51.026;4.472;2022-08-25T06:09:13;-6035.63;;;20.12
74449;BMP280;62878;51.026;4.472;2022-08-25T06:11:40;-6039.41;;;20.34
74449;BMP280;62878;51.026;4.472;2022-08-25T06:14:07;-6039.91;;;20.37
74449;BMP280;62878;51.026;4.472;2022-08-25T06:16:32;-6038.41;;;20.28
74449;BMP280;62878;51.026;4.472;2022-08-25T06:18:58;-6040.94;;;20.43
74449;BMP280;62878;51.026;4.472;2022-08-25T06:21:24;-6039.75;;;20.36
74449;BMP280;62878;51.026;4.472;2022-08-25T06:23:49;-6039.25;;;20.33
74449;BMP280;62878;51.026;4.472;2022-08-25T06:26:15;-6044.63;;;20.65
74449;BMP280;62878;51.026;4.472;2022-08-25T06:28:40;-6045.38;;;20.70
74449;BMP280;62878;51.026;4.472;2022-08-25T06:31:05;-6045.63;;;20.72
74449;BMP280;62878;51.026;4.472;2022-08-25T06:33:31;-6047.16;;;20.81
74449;BMP280;62878;51.026;4.472;2022-08-25T06:35:58;-6047.97;;;20.86
74449;BMP280;62878;51.026;4.472;2022-08-25T06:38:24;-6049.66;;;20.96
74449;BMP280;62878;51.026;4.472;2022-08-25T06:40:50;-6050.34;;;21.00
74449;BMP280;62878;51.026;4.472;2022-08-25T06:43:18;-6049.50;;;20.95
74449;BMP280;62878;51.026;4.472;2022-08-25T06:45:43;-6052.00;;;21.10
74449;BMP280;62878;51.026;4.472;2022-08-25T06:48:09;-6052.00;;;21.10
74449;BMP280;62878;51.026;4.472;2022-08-25T06:50:37;-6053.19;;;21.17
74449;BMP280;62878;51.026;4.472;2022-08-25T06:53:04;-6054.53;;;21.25
74449;BMP280;62878;51.026;4.472;2022-08-25T06:55:29;-6055.47;;;21.31
74449;BMP280;62878;51.026;4.472;2022-08-25T06:57:55;-6052.69;;;21.14
74449;BMP280;62878;51.026;4.472;2022-08-25T07:00:20;-6050.00;;;20.98
74449;BMP280;62878;51.026;4.472;2022-08-25T07:02:45;-6056.22;;;21.35
74449;BMP280;62878;51.026;4.472;2022-08-25T07:05:11;-6056.97;;;21.40
74449;BMP280;62878;51.026;4.472;2022-08-25T07:07:37;-6060.66;;;21.62
74449;BMP280;62878;51.026;4.472;2022-08-25T07:10:03;-6061.41;;;21.66
74449;BMP280;62878;51.026;4.472;2022-08-25T07:12:29;-6056.88;;;21.39
74449;BMP280;62878;51.026;4.472;2022-08-25T07:14:54;-6058.41;;;21.48
74449;BMP280;62878;51.026;4.472;2022-08-25T07:17:20;-6063.53;;;21.79
74449;BMP280;62878;51.026;4.472;2022-08-25T07:19:48;-6062.25;;;21.71
74449;BMP280;62878;51.026;4.472;2022-08-25T07:22:13;-6057.97;;;21.46
74449;BMP280;62878;51.026;4.472;2022-08-25T07:24:39;-6067.88;;;22.05
74449;BMP280;62878;51.026;4.472;2022-08-25T07:27:05;-6065.53;;;21.91
74449;BMP280;62878;51.026;4.472;2022-08-25T07:29:30;-6068.13;;;22.07
74449;BMP280;62878;51.026;4.472;2022-08-25T07:31:58;-6064.69;;;21.86
74449;BMP280;62878;51.026;4.472;2022-08-25T07:34:23;-6070.66;;;22.22
74449;BMP280;62878;51.026;4.472;2022-08-25T07:37:07;-6068.97;;;22.12
74449;BMP280;62878;51.026;4.472;2022-08-25T07:39:33;-6073.59;;;22.39
74449;BMP280;62878;51.026;4.472;2022-08-25T07:41:59;-6072.50;;;22.33
74449;BMP280;62878;51.026;4.472;2022-08-25T07:44:25;-6074.19;;;22.43
74449;BMP280;62878;51.026;4.472;2022-08-25T07:46:51;-6076.34;;;22.56
74449;BMP280;62878;51.026;4.472;2022-08-25T07:49:18;-6077.38;;;22.62
74449;BMP280;62878;51.026;4.472;2022-08-25T07:51:45;-6078.72;;;22.70
74449;BMP280;62878;51.026;4.472;2022-08-25T07:54:10;-6078.78;;;22.71
74449;BMP280;62878;51.026;4.472;2022-08-25T07:56:36;-6080.47;;;22.81
74449;BMP280;62878;51.026;4.472;2022-08-25T07:59:02;-6087.34;;;23.22
74449;BMP280;62878;51.026;4.472;2022-08-25T08:01:27;-6089.94;;;23.38
74449;BMP280;62878;51.026;4.472;2022-08-25T08:03:53;-6085.25;;;23.10
74449;BMP280;62878;51.026;4.472;2022-08-25T08:06:21;-6086.94;;;23.20
74449;BMP280;62878;51.026;4.472;2022-08-25T08:08:49;-6093.97;;;23.62
74449;BMP280;62878;51.026;4.472;2022-08-25T08:11:21;-6088.44;;;23.29
74449;BMP280;62878;51.026;4.472;2022-08-25T08:13:47;-6095.91;;;23.74
74449;BMP280;62878;51.026;4.472;2022-08-25T08:16:15;-6098.16;;;23.87
74449;BMP280;62878;51.026;4.472;2022-08-25T08:18:43;-6098.75;;;23.91
74449;BMP280;62878;51.026;4.472;2022-08-25T08:23:43;-6099.84;;;23.97
74449;BMP280;62878;51.026;4.472;2022-08-25T08:26:08;-6098.84;;;23.91
74449;BMP280;62878;51.026;4.472;2022-08-25T08:28:35;-6100.25;;;24.00
74449;BMP280;62878;51.026;4.472;2022-08-25T08:31:00;-6099.09;;;23.93
74449;BMP280;62878;51.026;4.472;2022-08-25T08:33:27;-6101.34;;;24.06
74449;BMP280;62878;51.026;4.472;2022-08-25T08:36:00;-6101.34;;;24.06
74449;BMP280;62878;51.026;4.472;2022-08-25T08:38:26;-6102.63;;;24.14
74449;BMP280;62878;51.026;4.472;2022-08-25T08:41:13;-6102.53;;;24.13
74449;BMP280;62878;51.026;4.472;2022-08-25T08:49:36;-6102.88;;;24.15
74449;BMP280;62878;51.026;4.472;2022-08-25T08:52:06;-6101.34;;;24.06
74449;BMP280;62878;51.026;4.472;2022-08-25T08:54:36;-6100.84;;;24.03
74449;BMP280;62878;51.026;4.472;2022-08-25T08:57:13;-6103.63;;;24.20
74449;BMP280;62878;51.026;4.472;2022-08-25T09:00:07;-6103.88;;;24.21
74449;BMP280;62878;51.026;4.472;2022-08-25T09:05:14;-6101.28;;;24.06
74449;BMP280;62878;51.026;4.472;2022-08-25T09:07:58;-6101.53;;;24.07
74449;BMP280;62878;51.026;4.472;2022-08-25T09:10:38;-6105.53;;;24.32
74449;BMP280;62878;51.026;4.472;2022-08-25T09:15:52;-6106.22;;;24.36
74449;BMP280;62878;51.026;4.472;2022-08-25T09:18:53;-6106.22;;;24.36
74449;BMP280;62878;51.026;4.472;2022-08-25T09:29:33;-6103.69;;;24.20
74449;BMP280;62878;51.026;4.472;2022-08-25T09:32:06;-6108.56;;;24.50
74449;BMP280;62878;51.026;4.472;2022-08-25T09:34:32;-6107.56;;;24.44
74449;BMP280;62878;51.026;4.472;2022-08-25T09:36:59;-6108.97;;;24.52
74449;BMP280;62878;51.026;4.472;2022-08-25T09:39:25;-6109.22;;;24.54
74449;BMP280;62878;51.026;4.472;2022-08-25T09:41:53;-6109.91;;;24.58
74449;BMP280;62878;51.026;4.472;2022-08-25T09:49:43;-6110.91;;;24.64
74449;BMP280;62878;51.026;4.472;2022-08-25T09:52:39;-6110.91;;;24.64
74449;BMP280;62878;51.026;4.472;2022-08-25T09:57:45;-6111.91;;;24.70
74449;BMP280;62878;51.026;4.472;2022-08-25T10:00:22;-6112.00;;;24.70
74449;BMP280;62878;51.026;4.472;2022-08-25T10:03:21;-6112.09;;;24.71
74449;BMP280;62878;51.026;4.472;2022-08-25T10:05:49;-6112.41;;;24.73
74449;BMP280;62878;51.026;4.472;2022-08-25T10:11:05;-6112.91;;;24.76
74449;BMP280;62878;51.026;4.472;2022-08-25T10:13:47;-6111.06;;;24.65
74449;BMP280;62878;51.026;4.472;2022-08-25T10:16:28;-6113.25;;;24.78
74449;BMP280;62878;51.026;4.472;2022-08-25T10:19:07;-6114.34;;;24.84
74449;BMP280;62878;51.026;4.472;2022-08-25T10:21:37;-6114.50;;;24.85
74449;BMP280;62878;51.026;4.472;2022-08-25T10:24:03;-6113.84;;;24.81
74449;BMP280;62878;51.026;4.472;2022-08-25T10:34:57;-6116.44;;;24.97
74449;BMP280;62878;51.026;4.472;2022-08-25T10:40:33;-6116.03;;;24.95
74449;BMP280;62878;51.026;4.472;2022-08-25T10:43:30;-6112.75;;;24.75
74449;BMP280;62878;51.026;4.472;2022-08-25T10:46:19;-6112.00;;;24.70
74449;BMP280;62878;51.026;4.472;2022-08-25T10:49:13;-6111.50;;;24.67
74449;BMP280;62878;51.026;4.472;2022-08-25T10:52:02;-6109.22;;;24.54
74449;BMP280;62878;51.026;4.472;2022-08-25T10:54:37;-6110.06;;;24.59
74449;BMP280;62878;51.026;4.472;2022-08-25T10:57:22;-6111.66;;;24.68
74449;BMP280;62878;51.026;4.472;2022-08-25T10:59:59;-6112.75;;;24.75
74449;BMP280;62878;51.026;4.472;2022-08-25T11:08:02;-6112.00;;;24.70
74449;BMP280;62878;51.026;4.472;2022-08-25T11:10:39;-6115.50;;;24.92
74449;BMP280;62878;51.026;4.472;2022-08-25T11:13:15;-6115.94;;;24.94
74449;BMP280;62878;51.026;4.472;2022-08-25T11:15:56;-6110.31;;;24.60
74449;BMP280;62878;51.026;4.472;2022-08-25T11:18:24;-6115.25;;;24.90
74449;BMP280;62878;51.026;4.472;2022-08-25T11:21:06;-6108.06;;;24.47
74449;BMP280;62878;51.026;4.472;2022-08-25T11:23:49;-6114.50;;;24.85
74449;BMP280;62878;51.026;4.472;2022-08-25T11:26:23;-6112.50;;;24.73
74449;BMP280;62878;51.026;4.472;2022-08-25T11:28:59;-6115.09;;;24.89
74449;BMP280;62878;51.026;4.472;2022-08-25T11:31:27;-6113.50;;;24.79
74449;BMP280;62878;51.026;4.472;2022-08-25T11:33:53;-6110.91;;;24.64
74449;BMP280;62878;51.026;4.472;2022-08-25T11:36:35;-6115.59;;;24.92
74449;BMP280;62878;51.026;4.472;2022-08-25T11:41:52;-6124.22;;;25.44
74449;BMP280;62878;51.026;4.472;2022-08-25T11:57:37;-6118.88;;;25.12
74449;BMP280;62878;51.026;4.472;2022-08-25T12:00:12;-6117.78;;;25.05
74449;BMP280;62878;51.026;4.472;2022-08-25T12:02:39;-6117.28;;;25.02
74449;BMP280;62878;51.026;4.472;2022-08-25T12:08:03;-6120.13;;;25.19
74449;BMP280;62878;51.026;4.472;2022-08-25T12:10:59;-6119.78;;;25.17
74449;BMP280;62878;51.026;4.472;2022-08-25T12:13:48;-6118.78;;;25.11
74449;BMP280;62878;51.026;4.472;2022-08-25T12:16:40;-6120.38;;;25.21
74449;BMP280;62878;51.026;4.472;2022-08-25T12:27:31;-6119.78;;;25.17
74449;BMP280;62878;51.026;4.472;2022-08-25T12:38:39;-6114.75;;;24.87
74449;BMP280;62878;51.026;4.472;2022-08-25T12:41:09;-6119.28;;;25.14
74449;BMP280;62878;51.026;4.472;2022-08-25T12:43:39;-6138.88;;;26.32
74449;BMP280;62878;51.026;4.472;2022-08-25T12:48:58;-6140.56;;;26.42
74449;BMP280;62878;51.026;4.472;2022-08-25T12:51:53;-6136.72;;;26.19
74449;BMP280;62878;51.026;4.472;2022-08-25T12:59:50;-6122.97;;;25.36
74449;BMP280;62878;51.026;4.472;2022-08-25T13:02:48;-6126.00;;;25.55
74449;BMP280;62878;51.026;4.472;2022-08-25T13:10:55;-6121.63;;;25.28
74449;BMP280;62878;51.026;4.472;2022-08-25T13:16:27;-6119.38;;;25.15
74449;BMP280;62878;51.026;4.472;2022-08-25T13:18:54;-6119.13;;;25.13
74449;BMP280;62878;51.026;4.472;2022-08-25T13:21:36;-6119.13;;;25.13
74449;BMP280;62878;51.026;4.472;2022-08-25T13:24:06;-6118.94;;;25.12
74449;BMP280;62878;51.026;4.472;2022-08-25T13:26:40;-6118.28;;;25.08
74449;BMP280;62878;51.026;4.472;2022-08-25T13:31:33;-6116.94;;;25.00
74449;BMP280;62878;51.026;4.472;2022-08-25T13:34:05;-6117.94;;;25.06
74449;BMP280;62878;51.026;4.472;2022-08-25T13:36:35;-6114.09;;;24.83
74449;BMP280;62878;51.026;4.472;2022-08-25T13:39:22;-6118.13;;;25.07
74449;BMP280;62878;51.026;4.472;2022-08-25T13:41:52;-6118.28;;;25.08
74449;BMP280;62878;51.026;4.472;2022-08-25T13:44:20;-6118.94;;;25.12
74449;BMP280;62878;51.026;4.472;2022-08-25T13:46:46;-6119.22;;;25.14
74449;BMP280;62878;51.026;4.472;2022-08-25T13:49:24;-6119.63;;;25.16
74449;BMP280;62878;51.026;4.472;2022-08-25T13:51:52;-6120.13;;;25.19
74449;BMP280;62878;51.026;4.472;2022-08-25T13:54:40;-6119.13;;;25.13
74449;BMP280;62878;51.026;4.472;2022-08-25T13:57:18;-6121.63;;;25.28
74449;BMP280;62878;51.026;4.472;2022-08-25T13:59:49;-6120.88;;;25.24
74449;BMP280;62878;51.026;4.472;2022-08-25T14:02:46;-6118.63;;;25.10
74449;BMP280;62878;51.026;4.472;2022-08-25T14:05:13;-6124.66;;;25.46
74449;BMP280;62878;51.026;4.472;2022-08-25T14:07:39;-6128.25;;;25.68
74449;BMP280;62878;51.026;4.472;2022-08-25T14:10:08;-6125.22;;;25.50
74449;BMP280;62878;51.026;4.472;2022-08-25T14:12:44;-6123.47;;;25.39
74449;BMP280;62878;51.026;4.472;2022-08-25T14:17:48;-6121.81;;;25.29
74449;BMP280;62878;51.026;4.472;2022-08-25T14:20:23;-6120.78;;;25.23
74449;BMP280;62878;51.026;4.472;2022-08-25T14:23:27;-6121.13;;;25.25
74449;BMP280;62878;51.026;4.472;2022-08-25T14:25:55;-6121.31;;;25.26
74449;BMP280;62878;51.026;4.472;2022-08-25T14:28:24;-6121.31;;;25.26
74449;BMP280;62878;51.026;4.472;2022-08-25T14:30:59;-6121.13;;;25.25
74449;BMP280;62878;51.026;4.472;2022-08-25T14:33:32;-6121.31;;;25.26
74449;BMP280;62878;51.026;4.472;2022-08-25T14:35:59;-6116.94;;;25.00
74449;BMP280;62878;51.026;4.472;2022-08-25T14:38:27;-6118.78;;;25.11
74449;BMP280;62878;51.026;4.472;2022-08-25T14:40:53;-6122.72;;;25.35
74449;BMP280;62878;51.026;4.472;2022-08-25T14:43:18;-6122.72;;;25.35
74449;BMP280;62878;51.026;4.472;2022-08-25T14:45:45;-6120.97;;;25.24
74449;BMP280;62878;51.026;4.472;2022-08-25T14:48:35;-6120.47;;;25.21
74449;BMP280;62878;51.026;4.472;2022-08-25T14:51:04;-6123.72;;;25.41
74449;BMP280;62878;51.026;4.472;2022-08-25T14:53:30;-6124.31;;;25.44
74449;BMP280;62878;51.026;4.472;2022-08-25T14:55:56;-6134.69;;;26.07
74449;BMP280;62878;51.026;4.472;2022-08-25T14:58:22;-6140.16;;;26.40
74449;BMP280;62878;51.026;4.472;2022-08-25T15:00:49;-6139.22;;;26.34
74449;BMP280;62878;51.026;4.472;2022-08-25T15:03:20;-6133.53;;;26.00
74449;BMP280;62878;51.026;4.472;2022-08-25T15:05:49;-6129.34;;;25.75
74449;BMP280;62878;51.026;4.472;2022-08-25T15:08:14;-6124.91;;;25.48
74449;BMP280;62878;51.026;4.472;2022-08-25T15:10:58;-6125.16;;;25.49
74449;BMP280;62878;51.026;4.472;2022-08-25T15:13:23;-6124.75;;;25.47
74449;BMP280;62878;51.026;4.472;2022-08-25T15:15:50;-6124.16;;;25.43
74449;BMP280;62878;51.026;4.472;2022-08-25T15:18:17;-6123.31;;;25.38
74449;BMP280;62878;51.026;4.472;2022-08-25T15:20:43;-6122.97;;;25.36
74449;BMP280;62878;51.026;4.472;2022-08-25T15:23:08;-6122.97;;;25.36
74449;BMP280;62878;51.026;4.472;2022-08-25T15:25:34;-6123.16;;;25.37
74449;BMP280;62878;51.026;4.472;2022-08-25T15:28:03;-6120.22;;;25.20
74449;BMP280;62878;51.026;4.472;2022-08-25T15:30:30;-6122.13;;;25.31
74449;BMP280;62878;51.026;4.472;2022-08-25T15:32:56;-6125.81;;;25.54
74449;BMP280;62878;51.026;4.472;2022-08-25T15:35:23;-6124.66;;;25.46
74449;BMP280;62878;51.026;4.472;2022-08-25T15:37:49;-6120.97;;;25.24
74449;BMP280;62878;51.026;4.472;2022-08-25T15:40:15;-6115.94;;;24.94
74449;BMP280;62878;51.026;4.472;2022-08-25T15:42:43;-6122.88;;;25.36
74449;BMP280;62878;51.026;4.472;2022-08-25T15:45:09;-6122.47;;;25.33
74449;BMP280;62878;51.026;4.472;2022-08-25T15:47:36;-6122.63;;;25.34
74449;BMP280;62878;51.026;4.472;2022-08-25T15:50:10;-6115.84;;;24.94
74449;BMP280;62878;51.026;4.472;2022-08-25T15:52:36;-6122.72;;;25.35
74449;BMP280;62878;51.026;4.472;2022-08-25T15:55:03;-6123.16;;;25.37
74449;BMP280;62878;51.026;4.472;2022-08-25T15:57:29;-6123.16;;;25.37
74449;BMP280;62878;51.026;4.472;2022-08-25T15:59:54;-6121.31;;;25.26
74449;BMP280;62878;51.026;4.472;2022-08-25T16:02:20;-6122.97;;;25.36
74449;BMP280;62878;51.026;4.472;2022-08-25T16:04:46;-6123.22;;;25.38
74449;BMP280;62878;51.026;4.472;2022-08-25T16:07:12;-6122.88;;;25.36
74449;BMP280;62878;51.026;4.472;2022-08-25T16:09:38;-6122.81;;;25.35
74449;BMP280;62878;51.026;4.472;2022-08-25T16:12:05;-6121.22;;;25.26
74449;BMP280;62878;51.026;4.472;2022-08-25T16:14:30;-6117.38;;;25.03
74449;BMP280;62878;51.026;4.472;2022-08-25T16:16:56;-6123.47;;;25.39